sensor_id;sensor_type;location;lat;lon;timestamp;temperature;humidity
61765;DHT22;50188;48.114;-1.388;2022-08-21T00:02:17;18.60;76.90
61765;DHT22;50188;48.114;-1.388;2022-08-21T00:04:46;18.60;76.80
61765;DHT22;50188;48.114;-1.388;2022-08-21T00:07:12;18.50;77.10
61765;DHT22;50188;48.114;-1.388;2022-08-21T00:09:38;18.50;77.00
61765;DHT22;50188;48.114;-1.388;2022-08-21T00:12:05;18.40;77.00
61765;DHT22;50188;48.114;-1.388;2022-08-21T00:14:32;18.40;77.00
61765;DHT22;50188;48.114;-1.388;2022-08-21T00:16:58;18.40;77.10
61765;DHT22;50188;48.114;-1.388;2022-08-21T00:19:24;18.40;76.80
61765;DHT22;50188;48.114;-1.388;2022-08-21T00:21:51;18.40;76.70
61765;DHT22;50188;48.114;-1.388;2022-08-21T00:24:19;18.50;77.00
61765;DHT22;50188;48.114;-1.388;2022-08-21T00:26:45;18.40;77.20
61765;DHT22;50188;48.114;-1.388;2022-08-21T00:29:12;18.30;77.70
61765;DHT22;50188;48.114;-1.388;2022-08-21T00:31:39;18.30;77.80
61765;DHT22;50188;48.114;-1.388;2022-08-21T00:34:05;18.20;77.70
61765;DHT22;50188;48.114;-1.388;2022-08-21T00:36:33;18.20;77.90
61765;DHT22;50188;48.114;-1.388;2022-08-21T00:38:59;18.10;77.80
61765;DHT22;50188;48.114;-1.388;2022-08-21T00:41:25;18.20;78.30
61765;DHT22;50188;48.114;-1.388;2022-08-21T00:43:52;18.10;78.20
61765;DHT22;50188;48.114;-1.388;2022-08-21T00:46:19;18.10;78.40
61765;DHT22;50188;48.114;-1.388;2022-08-21T00:48:44;18.10;78.30
61765;DHT22;50188;48.114;-1.388;2022-08-21T00:54:01;18.10;78.10
61765;DHT22;50188;48.114;-1.388;2022-08-21T00:56:27;18.00;78.00
61765;DHT22;50188;48.114;-1.388;2022-08-21T00:58:56;17.90;78.40
61765;DHT22;50188;48.114;-1.388;2022-08-21T01:01:22;17.90;78.00
61765;DHT22;50188;48.114;-1.388;2022-08-21T01:03:49;17.90;78.10
61765;DHT22;50188;48.114;-1.388;2022-08-21T01:06:15;17.90;77.60
61765;DHT22;50188;48.114;-1.388;2022-08-21T01:08:42;17.90;78.10
61765;DHT22;50188;48.114;-1.388;2022-08-21T01:11:08;17.90;78.40
61765;DHT22;50188;48.114;-1.388;2022-08-21T01:13:36;17.80;78.70
61765;DHT22;50188;48.114;-1.388;2022-08-21T01:16:04;17.80;79.40
61765;DHT22;50188;48.114;-1.388;2022-08-21T01:18:31;17.80;79.60
61765;DHT22;50188;48.114;-1.388;2022-08-21T01:21:13;17.70;79.70
61765;DHT22;50188;48.114;-1.388;2022-08-21T01:23:43;17.80;79.60
61765;DHT22;50188;48.114;-1.388;2022-08-21T01:26:10;17.80;79.70
61765;DHT22;50188;48.114;-1.388;2022-08-21T01:28:42;17.80;79.80
61765;DHT22;50188;48.114;-1.388;2022-08-21T01:31:10;17.70;80.40
61765;DHT22;50188;48.114;-1.388;2022-08-21T01:33:37;17.70;80.20
61765;DHT22;50188;48.114;-1.388;2022-08-21T01:36:04;17.70;80.20
61765;DHT22;50188;48.114;-1.388;2022-08-21T01:38:29;17.70;80.00
61765;DHT22;50188;48.114;-1.388;2022-08-21T01:40:56;17.60;80.20
61765;DHT22;50188;48.114;-1.388;2022-08-21T01:43:22;17.70;80.40
61765;DHT22;50188;48.114;-1.388;2022-08-21T01:45:47;17.70;80.50
61765;DHT22;50188;48.114;-1.388;2022-08-21T01:48:13;17.60;80.50
61765;DHT22;50188;48.114;-1.388;2022-08-21T01:50:38;17.60;80.80
61765;DHT22;50188;48.114;-1.388;2022-08-21T01:53:04;17.70;80.80
61765;DHT22;50188;48.114;-1.388;2022-08-21T01:55:30;17.60;80.90
61765;DHT22;50188;48.114;-1.388;2022-08-21T01:57:57;17.60;81.20
61765;DHT22;50188;48.114;-1.388;2022-08-21T02:00:23;17.50;81.70
61765;DHT22;50188;48.114;-1.388;2022-08-21T02:02:49;17.50;81.70
61765;DHT22;50188;48.114;-1.388;2022-08-21T02:05:16;17.50;81.70
61765;DHT22;50188;48.114;-1.388;2022-08-21T02:07:44;17.60;81.60
61765;DHT22;50188;48.114;-1.388;2022-08-21T02:10:13;17.60;81.90
61765;DHT22;50188;48.114;-1.388;2022-08-21T02:12:39;17.60;82.00
61765;DHT22;50188;48.114;-1.388;2022-08-21T02:15:06;17.50;82.60
61765;DHT22;50188;48.114;-1.388;2022-08-21T02:17:45;17.50;82.50
61765;DHT22;50188;48.114;-1.388;2022-08-21T02:20:16;17.50;82.30
61765;DHT22;50188;48.114;-1.388;2022-08-21T02:22:43;17.50;82.20
61765;DHT22;50188;48.114;-1.388;2022-08-21T02:25:08;17.40;82.30
61765;DHT22;50188;48.114;-1.388;2022-08-21T02:27:39;17.40;82.70
61765;DHT22;50188;48.114;-1.388;2022-08-21T02:30:07;17.40;82.40
61765;DHT22;50188;48.114;-1.388;2022-08-21T02:32:33;17.50;82.00
61765;DHT22;50188;48.114;-1.388;2022-08-21T02:34:59;17.40;82.20
61765;DHT22;50188;48.114;-1.388;2022-08-21T02:37:24;17.30;82.00
61765;DHT22;50188;48.114;-1.388;2022-08-21T02:39:50;17.40;82.10
61765;DHT22;50188;48.114;-1.388;2022-08-21T02:42:16;17.40;81.70
61765;DHT22;50188;48.114;-1.388;2022-08-21T02:44:42;17.40;81.50
61765;DHT22;50188;48.114;-1.388;2022-08-21T02:47:07;17.40;81.50
61765;DHT22;50188;48.114;-1.388;2022-08-21T02:49:33;17.30;82.00
61765;DHT22;50188;48.114;-1.388;2022-08-21T02:51:58;17.30;82.10
61765;DHT22;50188;48.114;-1.388;2022-08-21T02:54:24;17.30;82.00
61765;DHT22;50188;48.114;-1.388;2022-08-21T02:56:50;17.20;82.30
61765;DHT22;50188;48.114;-1.388;2022-08-21T02:59:15;17.20;82.50
61765;DHT22;50188;48.114;-1.388;2022-08-21T03:01:41;17.30;82.40
61765;DHT22;50188;48.114;-1.388;2022-08-21T03:04:08;17.20;82.90
61765;DHT22;50188;48.114;-1.388;2022-08-21T03:06:34;17.20;82.80
61765;DHT22;50188;48.114;-1.388;2022-08-21T03:11:35;17.20;83.10
61765;DHT22;50188;48.114;-1.388;2022-08-21T03:14:02;17.20;83.40
61765;DHT22;50188;48.114;-1.388;2022-08-21T03:16:30;17.30;83.50
61765;DHT22;50188;48.114;-1.388;2022-08-21T03:18:59;17.20;83.40
61765;DHT22;50188;48.114;-1.388;2022-08-21T03:21:25;17.30;83.30
61765;DHT22;50188;48.114;-1.388;2022-08-21T03:23:52;17.20;83.10
61765;DHT22;50188;48.114;-1.388;2022-08-21T03:26:19;17.20;83.10
61765;DHT22;50188;48.114;-1.388;2022-08-21T03:28:45;17.20;83.10
61765;DHT22;50188;48.114;-1.388;2022-08-21T03:31:11;17.10;83.10
61765;DHT22;50188;48.114;-1.388;2022-08-21T03:33:37;17.10;83.30
61765;DHT22;50188;48.114;-1.388;2022-08-21T03:36:06;17.10;83.10
61765;DHT22;50188;48.114;-1.388;2022-08-21T03:38:33;17.00;83.40
61765;DHT22;50188;48.114;-1.388;2022-08-21T03:41:00;17.10;83.30
61765;DHT22;50188;48.114;-1.388;2022-08-21T03:43:27;17.10;83.70
61765;DHT22;50188;48.114;-1.388;2022-08-21T03:45:53;17.10;83.70
61765;DHT22;50188;48.114;-1.388;2022-08-21T03:48:19;17.10;83.80
61765;DHT22;50188;48.114;-1.388;2022-08-21T03:50:45;17.10;84.10
61765;DHT22;50188;48.114;-1.388;2022-08-21T03:53:14;17.20;84.30
61765;DHT22;50188;48.114;-1.388;2022-08-21T03:55:40;17.10;85.70
61765;DHT22;50188;48.114;-1.388;2022-08-21T03:58:06;17.10;84.70
61765;DHT22;50188;48.114;-1.388;2022-08-21T04:00:32;17.10;84.70
61765;DHT22;50188;48.114;-1.388;2022-08-21T04:02:59;17.20;84.50
61765;DHT22;50188;48.114;-1.388;2022-08-21T04:05:25;17.20;84.60
61765;DHT22;50188;48.114;-1.388;2022-08-21T04:08:00;17.20;84.80
61765;DHT22;50188;48.114;-1.388;2022-08-21T04:10:28;17.10;85.10
61765;DHT22;50188;48.114;-1.388;2022-08-21T04:12:54;17.10;85.20
61765;DHT22;50188;48.114;-1.388;2022-08-21T04:15:21;17.10;85.10
61765;DHT22;50188;48.114;-1.388;2022-08-21T04:17:48;17.10;84.90
61765;DHT22;50188;48.114;-1.388;2022-08-21T04:20:15;17.20;84.50
61765;DHT22;50188;48.114;-1.388;2022-08-21T04:22:41;17.20;84.40
61765;DHT22;50188;48.114;-1.388;2022-08-21T04:25:08;17.10;84.60
61765;DHT22;50188;48.114;-1.388;2022-08-21T04:27:34;17.20;84.10
61765;DHT22;50188;48.114;-1.388;2022-08-21T04:30:00;17.10;84.40
61765;DHT22;50188;48.114;-1.388;2022-08-21T04:32:26;17.20;85.40
61765;DHT22;50188;48.114;-1.388;2022-08-21T04:37:45;17.10;84.70
61765;DHT22;50188;48.114;-1.388;2022-08-21T04:40:13;17.10;84.60
61765;DHT22;50188;48.114;-1.388;2022-08-21T04:42:46;17.10;84.80
61765;DHT22;50188;48.114;-1.388;2022-08-21T04:45:20;17.20;84.90
61765;DHT22;50188;48.114;-1.388;2022-08-21T04:47:48;17.10;85.20
61765;DHT22;50188;48.114;-1.388;2022-08-21T04:52:51;17.20;85.20
61765;DHT22;50188;48.114;-1.388;2022-08-21T04:55:19;17.20;85.40
61765;DHT22;50188;48.114;-1.388;2022-08-21T04:57:45;17.20;85.40
61765;DHT22;50188;48.114;-1.388;2022-08-21T05:00:12;17.10;85.80
61765;DHT22;50188;48.114;-1.388;2022-08-21T05:02:40;17.00;86.00
61765;DHT22;50188;48.114;-1.388;2022-08-21T05:05:07;17.00;86.30
61765;DHT22;50188;48.114;-1.388;2022-08-21T05:07:33;17.00;86.20
61765;DHT22;50188;48.114;-1.388;2022-08-21T05:10:00;17.00;86.10
61765;DHT22;50188;48.114;-1.388;2022-08-21T05:12:26;17.10;85.60
61765;DHT22;50188;48.114;-1.388;2022-08-21T05:14:52;17.10;85.40
61765;DHT22;50188;48.114;-1.388;2022-08-21T05:17:18;17.00;85.30
61765;DHT22;50188;48.114;-1.388;2022-08-21T05:19:44;17.00;85.60
61765;DHT22;50188;48.114;-1.388;2022-08-21T05:22:10;17.10;85.50
61765;DHT22;50188;48.114;-1.388;2022-08-21T05:24:36;17.10;85.50
61765;DHT22;50188;48.114;-1.388;2022-08-21T05:27:04;17.10;85.80
61765;DHT22;50188;48.114;-1.388;2022-08-21T05:29:32;17.10;85.80
61765;DHT22;50188;48.114;-1.388;2022-08-21T05:31:58;17.10;85.70
61765;DHT22;50188;48.114;-1.388;2022-08-21T05:34:24;17.10;85.90
61765;DHT22;50188;48.114;-1.388;2022-08-21T05:36:50;17.00;86.10
61765;DHT22;50188;48.114;-1.388;2022-08-21T05:39:17;17.00;86.40
61765;DHT22;50188;48.114;-1.388;2022-08-21T05:41:42;17.00;86.50
61765;DHT22;50188;48.114;-1.388;2022-08-21T05:44:08;17.10;86.60
61765;DHT22;50188;48.114;-1.388;2022-08-21T05:46:34;17.20;86.60
61765;DHT22;50188;48.114;-1.388;2022-08-21T05:49:00;17.20;86.80
61765;DHT22;50188;48.114;-1.388;2022-08-21T05:51:26;17.30;86.70
61765;DHT22;50188;48.114;-1.388;2022-08-21T05:53:52;17.20;86.60
61765;DHT22;50188;48.114;-1.388;2022-08-21T05:56:18;17.30;86.70
61765;DHT22;50188;48.114;-1.388;2022-08-21T05:58:44;17.30;86.70
61765;DHT22;50188;48.114;-1.388;2022-08-21T06:01:10;17.30;86.80
61765;DHT22;50188;48.114;-1.388;2022-08-21T06:03:38;17.30;87.00
61765;DHT22;50188;48.114;-1.388;2022-08-21T06:06:04;17.30;87.10
61765;DHT22;50188;48.114;-1.388;2022-08-21T06:08:31;17.30;86.80
61765;DHT22;50188;48.114;-1.388;2022-08-21T06:10:59;17.30;86.70
61765;DHT22;50188;48.114;-1.388;2022-08-21T06:13:25;17.30;86.80
61765;DHT22;50188;48.114;-1.388;2022-08-21T06:16:03;17.40;86.50
61765;DHT22;50188;48.114;-1.388;2022-08-21T06:18:29;17.40;86.70
61765;DHT22;50188;48.114;-1.388;2022-08-21T06:20:58;17.40;86.80
61765;DHT22;50188;48.114;-1.388;2022-08-21T06:23:25;17.50;86.60
61765;DHT22;50188;48.114;-1.388;2022-08-21T06:25:51;17.60;86.40
61765;DHT22;50188;48.114;-1.388;2022-08-21T06:28:16;17.60;86.30
61765;DHT22;50188;48.114;-1.388;2022-08-21T06:30:42;17.70;86.00
61765;DHT22;50188;48.114;-1.388;2022-08-21T06:33:08;17.70;86.20
61765;DHT22;50188;48.114;-1.388;2022-08-21T06:35:35;17.70;86.10
61765;DHT22;50188;48.114;-1.388;2022-08-21T06:38:04;17.70;86.60
61765;DHT22;50188;48.114;-1.388;2022-08-21T06:40:30;17.80;86.00
61765;DHT22;50188;48.114;-1.388;2022-08-21T06:42:57;17.90;85.80
61765;DHT22;50188;48.114;-1.388;2022-08-21T06:45:24;18.00;85.40
61765;DHT22;50188;48.114;-1.388;2022-08-21T06:47:50;18.10;84.60
61765;DHT22;50188;48.114;-1.388;2022-08-21T06:50:18;18.50;84.10
61765;DHT22;50188;48.114;-1.388;2022-08-21T06:52:45;18.60;83.10
61765;DHT22;50188;48.114;-1.388;2022-08-21T06:55:11;18.70;82.80
61765;DHT22;50188;48.114;-1.388;2022-08-21T06:57:37;18.70;82.40
61765;DHT22;50188;48.114;-1.388;2022-08-21T07:00:04;18.70;82.60
61765;DHT22;50188;48.114;-1.388;2022-08-21T07:02:31;18.70;82.60
61765;DHT22;50188;48.114;-1.388;2022-08-21T07:04:58;18.70;83.50
61765;DHT22;50188;48.114;-1.388;2022-08-21T07:07:24;18.80;84.30
61765;DHT22;50188;48.114;-1.388;2022-08-21T07:09:50;18.80;83.70
61765;DHT22;50188;48.114;-1.388;2022-08-21T07:12:16;18.80;84.10
61765;DHT22;50188;48.114;-1.388;2022-08-21T07:14:42;18.90;83.80
61765;DHT22;50188;48.114;-1.388;2022-08-21T07:17:08;18.90;83.60
61765;DHT22;50188;48.114;-1.388;2022-08-21T07:19:34;18.90;82.20
61765;DHT22;50188;48.114;-1.388;2022-08-21T07:22:01;18.90;83.40
61765;DHT22;50188;48.114;-1.388;2022-08-21T07:24:27;19.00;83.70
61765;DHT22;50188;48.114;-1.388;2022-08-21T07:26:54;19.30;82.10
61765;DHT22;50188;48.114;-1.388;2022-08-21T07:29:20;19.40;81.40
61765;DHT22;50188;48.114;-1.388;2022-08-21T07:31:46;19.40;81.40
61765;DHT22;50188;48.114;-1.388;2022-08-21T07:34:41;19.20;80.10
61765;DHT22;50188;48.114;-1.388;2022-08-21T07:37:07;19.40;81.30
61765;DHT22;50188;48.114;-1.388;2022-08-21T07:39:42;19.30;82.00
61765;DHT22;50188;48.114;-1.388;2022-08-21T07:42:18;19.20;81.30
61765;DHT22;50188;48.114;-1.388;2022-08-21T07:44:44;19.30;81.50
61765;DHT22;50188;48.114;-1.388;2022-08-21T07:47:10;19.50;81.30
61765;DHT22;50188;48.114;-1.388;2022-08-21T07:49:36;19.70;80.50
61765;DHT22;50188;48.114;-1.388;2022-08-21T07:52:03;19.80;80.70
61765;DHT22;50188;48.114;-1.388;2022-08-21T07:54:29;19.80;79.80
61765;DHT22;50188;48.114;-1.388;2022-08-21T07:56:55;19.90;79.90
61765;DHT22;50188;48.114;-1.388;2022-08-21T07:59:21;19.90;79.80
61765;DHT22;50188;48.114;-1.388;2022-08-21T08:01:47;19.90;80.30
61765;DHT22;50188;48.114;-1.388;2022-08-21T08:04:16;20.00;80.80
61765;DHT22;50188;48.114;-1.388;2022-08-21T08:06:42;20.00;80.50
61765;DHT22;50188;48.114;-1.388;2022-08-21T08:09:08;20.20;79.40
61765;DHT22;50188;48.114;-1.388;2022-08-21T08:11:35;20.20;78.50
61765;DHT22;50188;48.114;-1.388;2022-08-21T08:14:02;20.40;77.90
61765;DHT22;50188;48.114;-1.388;2022-08-21T08:16:37;20.20;78.00
61765;DHT22;50188;48.114;-1.388;2022-08-21T08:19:03;20.40;78.20
61765;DHT22;50188;48.114;-1.388;2022-08-21T08:21:29;20.50;78.10
61765;DHT22;50188;48.114;-1.388;2022-08-21T08:23:55;20.60;78.00
61765;DHT22;50188;48.114;-1.388;2022-08-21T08:26:21;20.50;77.50
61765;DHT22;50188;48.114;-1.388;2022-08-21T08:28:46;20.50;77.10
61765;DHT22;50188;48.114;-1.388;2022-08-21T08:31:13;20.60;76.90
61765;DHT22;50188;48.114;-1.388;2022-08-21T08:33:39;20.70;76.60
61765;DHT22;50188;48.114;-1.388;2022-08-21T08:36:11;20.80;76.20
61765;DHT22;50188;48.114;-1.388;2022-08-21T08:38:37;20.90;75.40
61765;DHT22;50188;48.114;-1.388;2022-08-21T08:41:16;21.10;75.20
61765;DHT22;50188;48.114;-1.388;2022-08-21T08:43:44;21.30;74.40
61765;DHT22;50188;48.114;-1.388;2022-08-21T08:46:16;21.50;73.50
61765;DHT22;50188;48.114;-1.388;2022-08-21T08:48:50;21.50;73.50
61765;DHT22;50188;48.114;-1.388;2022-08-21T08:51:30;21.50;72.80
61765;DHT22;50188;48.114;-1.388;2022-08-21T08:54:05;22.10;72.20
61765;DHT22;50188;48.114;-1.388;2022-08-21T08:56:35;22.60;71.10
61765;DHT22;50188;48.114;-1.388;2022-08-21T08:59:15;22.80;68.50
61765;DHT22;50188;48.114;-1.388;2022-08-21T09:01:41;22.90;66.60
61765;DHT22;50188;48.114;-1.388;2022-08-21T09:04:07;22.90;66.50
61765;DHT22;50188;48.114;-1.388;2022-08-21T09:06:56;23.00;66.50
61765;DHT22;50188;48.114;-1.388;2022-08-21T09:09:43;23.10;65.00
61765;DHT22;50188;48.114;-1.388;2022-08-21T09:12:25;23.40;63.90
61765;DHT22;50188;48.114;-1.388;2022-08-21T09:15:09;23.60;63.80
61765;DHT22;50188;48.114;-1.388;2022-08-21T09:18:07;23.70;62.80
61765;DHT22;50188;48.114;-1.388;2022-08-21T09:20:56;23.50;62.50
61765;DHT22;50188;48.114;-1.388;2022-08-21T09:23:52;23.40;63.70
61765;DHT22;50188;48.114;-1.388;2022-08-21T09:26:24;23.50;62.50
61765;DHT22;50188;48.114;-1.388;2022-08-21T09:28:54;23.60;63.20
61765;DHT22;50188;48.114;-1.388;2022-08-21T09:31:33;23.60;62.10
61765;DHT22;50188;48.114;-1.388;2022-08-21T09:34:02;23.60;62.30
61765;DHT22;50188;48.114;-1.388;2022-08-21T09:36:49;23.60;62.70
61765;DHT22;50188;48.114;-1.388;2022-08-21T09:39:32;23.60;61.00
61765;DHT22;50188;48.114;-1.388;2022-08-21T09:42:06;23.50;60.90
61765;DHT22;50188;48.114;-1.388;2022-08-21T09:44:35;23.60;61.10
61765;DHT22;50188;48.114;-1.388;2022-08-21T09:47:08;23.60;60.60
61765;DHT22;50188;48.114;-1.388;2022-08-21T09:49:37;23.60;60.30
61765;DHT22;50188;48.114;-1.388;2022-08-21T09:52:12;23.90;59.50
61765;DHT22;50188;48.114;-1.388;2022-08-21T09:54:40;24.10;59.80
61765;DHT22;50188;48.114;-1.388;2022-08-21T09:57:26;24.20;58.70
61765;DHT22;50188;48.114;-1.388;2022-08-21T10:00:27;24.30;56.80
61765;DHT22;50188;48.114;-1.388;2022-08-21T10:06:02;24.40;57.80
61765;DHT22;50188;48.114;-1.388;2022-08-21T10:08:30;24.70;58.20
61765;DHT22;50188;48.114;-1.388;2022-08-21T10:11:02;24.70;57.30
61765;DHT22;50188;48.114;-1.388;2022-08-21T10:16:55;24.80;57.00
61765;DHT22;50188;48.114;-1.388;2022-08-21T10:19:50;25.10;56.20
61765;DHT22;50188;48.114;-1.388;2022-08-21T10:25:26;25.30;54.60
61765;DHT22;50188;48.114;-1.388;2022-08-21T10:28:06;25.00;55.80
61765;DHT22;50188;48.114;-1.388;2022-08-21T10:30:56;25.20;56.20
61765;DHT22;50188;48.114;-1.388;2022-08-21T10:33:37;25.30;55.30
61765;DHT22;50188;48.114;-1.388;2022-08-21T10:36:19;25.10;56.00
61765;DHT22;50188;48.114;-1.388;2022-08-21T10:39:02;25.10;56.50
61765;DHT22;50188;48.114;-1.388;2022-08-21T10:42:27;25.00;56.00
61765;DHT22;50188;48.114;-1.388;2022-08-21T10:44:47;24.90;56.20
61765;DHT22;50188;48.114;-1.388;2022-08-21T10:47:32;24.70;57.10
61765;DHT22;50188;48.114;-1.388;2022-08-21T10:50:10;24.90;56.80
61765;DHT22;50188;48.114;-1.388;2022-08-21T10:53:01;24.90;58.00
61765;DHT22;50188;48.114;-1.388;2022-08-21T10:55:35;24.70;58.50
61765;DHT22;50188;48.114;-1.388;2022-08-21T10:58:09;24.40;58.50
61765;DHT22;50188;48.114;-1.388;2022-08-21T11:00:47;24.50;59.70
61765;DHT22;50188;48.114;-1.388;2022-08-21T11:03:23;24.80;59.00
61765;DHT22;50188;48.114;-1.388;2022-08-21T11:08:45;25.30;59.80
61765;DHT22;50188;48.114;-1.388;2022-08-21T11:11:16;25.10;61.00
61765;DHT22;50188;48.114;-1.388;2022-08-21T11:13:51;25.10;60.90
61765;DHT22;50188;48.114;-1.388;2022-08-21T11:16:33;25.10;60.50
61765;DHT22;50188;48.114;-1.388;2022-08-21T11:22:25;25.00;58.80
61765;DHT22;50188;48.114;-1.388;2022-08-21T11:25:30;24.90;58.50
61765;DHT22;50188;48.114;-1.388;2022-08-21T11:28:10;24.70;58.70
61765;DHT22;50188;48.114;-1.388;2022-08-21T11:30:58;24.70;59.60
61765;DHT22;50188;48.114;-1.388;2022-08-21T11:33:36;24.70;58.90
61765;DHT22;50188;48.114;-1.388;2022-08-21T11:36:15;24.70;59.00
61765;DHT22;50188;48.114;-1.388;2022-08-21T11:38:51;24.50;59.80
61765;DHT22;50188;48.114;-1.388;2022-08-21T11:41:32;24.50;59.90
61765;DHT22;50188;48.114;-1.388;2022-08-21T11:44:29;24.40;60.80
61765;DHT22;50188;48.114;-1.388;2022-08-21T11:47:13;24.30;61.20
61765;DHT22;50188;48.114;-1.388;2022-08-21T11:49:49;24.20;61.40
61765;DHT22;50188;48.114;-1.388;2022-08-21T11:52:39;24.20;61.70
61765;DHT22;50188;48.114;-1.388;2022-08-21T11:55:32;24.20;61.40
61765;DHT22;50188;48.114;-1.388;2022-08-21T11:58:06;24.10;62.00
61765;DHT22;50188;48.114;-1.388;2022-08-21T12:00:44;24.20;64.30
61765;DHT22;50188;48.114;-1.388;2022-08-21T12:03:16;24.20;65.00
61765;DHT22;50188;48.114;-1.388;2022-08-21T12:05:51;24.20;66.80
61765;DHT22;50188;48.114;-1.388;2022-08-21T12:08:33;24.10;67.50
61765;DHT22;50188;48.114;-1.388;2022-08-21T12:11:05;24.00;68.50
61765;DHT22;50188;48.114;-1.388;2022-08-21T12:13:37;24.00;69.40
61765;DHT22;50188;48.114;-1.388;2022-08-21T12:16:13;23.90;68.80
61765;DHT22;50188;48.114;-1.388;2022-08-21T12:18:40;23.90;69.50
61765;DHT22;50188;48.114;-1.388;2022-08-21T12:21:27;23.90;71.00
61765;DHT22;50188;48.114;-1.388;2022-08-21T12:24:05;23.90;70.00
61765;DHT22;50188;48.114;-1.388;2022-08-21T12:26:53;23.80;69.70
61765;DHT22;50188;48.114;-1.388;2022-08-21T12:29:26;23.60;70.90
61765;DHT22;50188;48.114;-1.388;2022-08-21T12:31:59;23.50;71.60
61765;DHT22;50188;48.114;-1.388;2022-08-21T12:34:32;23.40;72.50
61765;DHT22;50188;48.114;-1.388;2022-08-21T12:37:15;23.40;72.70
61765;DHT22;50188;48.114;-1.388;2022-08-21T12:39:44;23.30;73.40
61765;DHT22;50188;48.114;-1.388;2022-08-21T12:42:22;23.00;72.50
61765;DHT22;50188;48.114;-1.388;2022-08-21T12:44:56;23.00;72.60
61765;DHT22;50188;48.114;-1.388;2022-08-21T12:47:33;23.00;73.90
61765;DHT22;50188;48.114;-1.388;2022-08-21T12:50:09;23.00;74.10
61765;DHT22;50188;48.114;-1.388;2022-08-21T12:52:51;22.90;74.20
61765;DHT22;50188;48.114;-1.388;2022-08-21T12:55:27;22.90;75.10
61765;DHT22;50188;48.114;-1.388;2022-08-21T12:57:53;22.90;74.40
61765;DHT22;50188;48.114;-1.388;2022-08-21T13:00:23;22.90;74.20
61765;DHT22;50188;48.114;-1.388;2022-08-21T13:02:51;23.00;75.60
61765;DHT22;50188;48.114;-1.388;2022-08-21T13:05:31;23.00;76.60
61765;DHT22;50188;48.114;-1.388;2022-08-21T13:07:58;23.00;77.50
61765;DHT22;50188;48.114;-1.388;2022-08-21T13:10:31;23.20;77.40
61765;DHT22;50188;48.114;-1.388;2022-08-21T13:13:00;23.30;75.90
61765;DHT22;50188;48.114;-1.388;2022-08-21T13:15:30;23.40;75.10
61765;DHT22;50188;48.114;-1.388;2022-08-21T13:17:57;23.50;73.90
61765;DHT22;50188;48.114;-1.388;2022-08-21T13:20:30;23.40;75.40
61765;DHT22;50188;48.114;-1.388;2022-08-21T13:22:56;23.40;75.50
61765;DHT22;50188;48.114;-1.388;2022-08-21T13:25:29;23.50;74.80
61765;DHT22;50188;48.114;-1.388;2022-08-21T13:28:04;23.50;74.70
61765;DHT22;50188;48.114;-1.388;2022-08-21T13:30:31;23.50;74.40
61765;DHT22;50188;48.114;-1.388;2022-08-21T13:33:00;23.50;73.80
61765;DHT22;50188;48.114;-1.388;2022-08-21T13:35:36;23.60;74.60
61765;DHT22;50188;48.114;-1.388;2022-08-21T13:38:03;23.60;73.60
61765;DHT22;50188;48.114;-1.388;2022-08-21T13:40:39;23.60;73.30
61765;DHT22;50188;48.114;-1.388;2022-08-21T13:43:12;23.50;73.20
61765;DHT22;50188;48.114;-1.388;2022-08-21T13:45:38;23.40;73.20
61765;DHT22;50188;48.114;-1.388;2022-08-21T13:48:08;23.20;74.50
61765;DHT22;50188;48.114;-1.388;2022-08-21T13:50:35;23.10;74.50
61765;DHT22;50188;48.114;-1.388;2022-08-21T13:53:05;23.00;75.40
61765;DHT22;50188;48.114;-1.388;2022-08-21T13:55:40;23.00;75.40
61765;DHT22;50188;48.114;-1.388;2022-08-21T13:58:08;22.90;77.40
61765;DHT22;50188;48.114;-1.388;2022-08-21T14:00:43;22.90;76.70
61765;DHT22;50188;48.114;-1.388;2022-08-21T14:03:10;22.90;76.80
61765;DHT22;50188;48.114;-1.388;2022-08-21T14:05:44;22.90;77.10
61765;DHT22;50188;48.114;-1.388;2022-08-21T14:08:20;23.00;77.20
61765;DHT22;50188;48.114;-1.388;2022-08-21T14:10:51;23.10;77.40
61765;DHT22;50188;48.114;-1.388;2022-08-21T14:13:39;23.10;77.00
61765;DHT22;50188;48.114;-1.388;2022-08-21T14:16:29;23.00;78.20
61765;DHT22;50188;48.114;-1.388;2022-08-21T14:19:20;23.00;77.60
61765;DHT22;50188;48.114;-1.388;2022-08-21T14:21:46;23.00;76.80
61765;DHT22;50188;48.114;-1.388;2022-08-21T14:24:25;22.90;76.60
61765;DHT22;50188;48.114;-1.388;2022-08-21T14:26:57;22.90;77.30
61765;DHT22;50188;48.114;-1.388;2022-08-21T14:29:26;22.90;78.90
61765;DHT22;50188;48.114;-1.388;2022-08-21T14:31:55;22.90;77.90
61765;DHT22;50188;48.114;-1.388;2022-08-21T14:34:27;22.80;77.70
61765;DHT22;50188;48.114;-1.388;2022-08-21T14:36:54;22.80;78.90
61765;DHT22;50188;48.114;-1.388;2022-08-21T14:39:20;22.80;78.50
61765;DHT22;50188;48.114;-1.388;2022-08-21T14:41:46;22.80;78.50
61765;DHT22;50188;48.114;-1.388;2022-08-21T14:44:14;22.80;77.70
61765;DHT22;50188;48.114;-1.388;2022-08-21T14:46:41;22.80;77.20
61765;DHT22;50188;48.114;-1.388;2022-08-21T14:49:07;22.80;77.50
61765;DHT22;50188;48.114;-1.388;2022-08-21T14:51:33;22.70;78.70
61765;DHT22;50188;48.114;-1.388;2022-08-21T14:53:59;22.80;79.00
61765;DHT22;50188;48.114;-1.388;2022-08-21T14:56:24;22.80;79.00
61765;DHT22;50188;48.114;-1.388;2022-08-21T14:58:52;22.90;79.00
61765;DHT22;50188;48.114;-1.388;2022-08-21T15:01:20;22.90;78.80
61765;DHT22;50188;48.114;-1.388;2022-08-21T15:03:46;22.90;79.10
61765;DHT22;50188;48.114;-1.388;2022-08-21T15:06:14;22.90;79.10
61765;DHT22;50188;48.114;-1.388;2022-08-21T15:08:40;22.80;77.50
61765;DHT22;50188;48.114;-1.388;2022-08-21T15:11:07;22.70;77.80
61765;DHT22;50188;48.114;-1.388;2022-08-21T15:13:34;22.70;77.90
61765;DHT22;50188;48.114;-1.388;2022-08-21T15:16:01;22.70;78.60
61765;DHT22;50188;48.114;-1.388;2022-08-21T15:18:28;22.50;79.30
61765;DHT22;50188;48.114;-1.388;2022-08-21T15:20:54;22.60;79.90
61765;DHT22;50188;48.114;-1.388;2022-08-21T15:23:20;22.70;79.00
61765;DHT22;50188;48.114;-1.388;2022-08-21T15:25:47;22.70;79.50
61765;DHT22;50188;48.114;-1.388;2022-08-21T15:28:15;22.70;79.40
61765;DHT22;50188;48.114;-1.388;2022-08-21T15:30:42;22.70;78.70
61765;DHT22;50188;48.114;-1.388;2022-08-21T15:33:09;22.70;78.70
61765;DHT22;50188;48.114;-1.388;2022-08-21T15:35:36;22.70;78.10
61765;DHT22;50188;48.114;-1.388;2022-08-21T15:38:02;22.70;78.10
61765;DHT22;50188;48.114;-1.388;2022-08-21T15:40:28;22.60;78.40
61765;DHT22;50188;48.114;-1.388;2022-08-21T15:42:58;22.50;78.10
61765;DHT22;50188;48.114;-1.388;2022-08-21T15:45:24;22.60;78.30
61765;DHT22;50188;48.114;-1.388;2022-08-21T15:47:51;22.60;78.30
61765;DHT22;50188;48.114;-1.388;2022-08-21T15:50:19;22.70;78.30
61765;DHT22;50188;48.114;-1.388;2022-08-21T15:52:45;22.70;78.40
61765;DHT22;50188;48.114;-1.388;2022-08-21T15:55:11;22.70;78.90
61765;DHT22;50188;48.114;-1.388;2022-08-21T15:57:42;22.70;78.20
61765;DHT22;50188;48.114;-1.388;2022-08-21T16:00:18;22.60;79.10
61765;DHT22;50188;48.114;-1.388;2022-08-21T16:02:47;22.60;78.50